This is the latest recevied weather packets stored in our database for station/object BMCB-34. If no packets are shown the sender has not sent any weather packets the latest 10 day(s).
| Time | Temp. | Humidity | Pressure | Rain* | Wind** | Luminosity | Snow |
|---|---|---|---|---|---|---|---|
| 1777417247 | 13.33° C | 53% | 1014.2 hPa | 0 mm | - | 0 W/m² | - |
| 1777416026 | 13.89° C | 53% | 1013.9 hPa | 0 mm | - | 0 W/m² | - |
| 1777415440 | 13.89° C | 53% | 1013.9 hPa | 0 mm | - | 0 W/m² | - |
| 1777413034 | 14.44° C | 54% | 1013.6 hPa | 0 mm | - | 0 W/m² | - |
| 1777412435 | 15° C | 53% | 1013.5 hPa | 0 mm | - | 0 W/m² | - |
| 1777411850 | 15° C | 53% | 1013.3 hPa | 0 mm | - | 0 W/m² | - |
| 1777408837 | 15.56° C | 45% | 1012.9 hPa | 0 mm | - | 0 W/m² | - |
| 1777407641 | 15.56° C | 45% | 1012.9 hPa | 0 mm | - | 0 W/m² | - |
| 1777407039 | 15.56° C | 46% | 1012.6 hPa | 0 mm | - | 0 W/m² | - |
| 1777405843 | 15.56° C | 45% | 1012.3 hPa | 0 mm | - | 0 W/m² | - |
| 1777405835 | 16.11° C | 43% | 1012.2 hPa | 0 mm | - | 0 W/m² | - |
| 1777405248 | 16.11° C | 43% | 1012.2 hPa | 0 mm | - | 0 W/m² | - |
| 1777401640 | 19.44° C | 35% | 1011.2 hPa | 0 mm | - | 12 W/m² | - |
| 1777401042 | 19.44° C | 35% | 1011.2 hPa | 0 mm | - | 12 W/m² | - |
| 1777401034 | 19.44° C | 35% | 1011.1 hPa | 0 mm | - | 22 W/m² | - |
| 1777400435 | 20° C | 35% | 1010.9 hPa | 0 mm | - | 36 W/m² | - |
| 1777395642 | 21.11° C | 34% | 1010.4 hPa | 0 mm | - | 170 W/m² | - |
| 1777394432 | 21.67° C | 35% | 1010.3 hPa | 0 mm | - | 316 W/m² | - |
| 1777393831 | 21.67° C | 35% | 1010.2 hPa | 0 mm | - | 340 W/m² | - |
| 1777392031 | 21.67° C | 36% | 1010.2 hPa | 0 mm | - | 378 W/m² | - |
| 1777391431 | 21.67° C | 35% | 1010.1 hPa | 0 mm | - | 234 W/m² | - |
| 1777390831 | 21.67° C | 34% | 1010.1 hPa | 0 mm | - | 476 W/m² | - |
| 1777389632 | 22.22° C | 34% | 1010.1 hPa | 0 mm | - | 522 W/m² | - |
| 1777388415 | 21.67° C | 35% | 1010.2 hPa | 0 mm | - | 500 W/m² | - |
| 1777387817 | 21.67° C | 35% | 1010.2 hPa | 0 mm | - | 500 W/m² | - |
* Rain latest hour (hover to see other rain measurements)
** Current wind speed in m/s (hover to see current wind gust speed)